Time;durP1;ratioP1;P1;durP2;ratioP2;P2;SDS_P1;SDS_P2;PMS_P1;PMS_P2;Temp;Humidity;BMP_temperature;BMP_pressure;BME280_temperature;BME280_humidity;BME280_pressure;Samples;Min_cycle;Max_cycle;Signal;HPM_P1;HPM_P2
2021/05/18 00:00:47;;;;;;;4.28;3.92;;;;;;;;;;5035275;28;20226;-82
2021/05/18 00:03:16;;;;;;;4.63;3.83;;;;;;;;;;5034322;28;20204;-82
2021/05/18 00:05:49;;;;;;;4.82;4.30;;;;;;;;;;5035651;28;20265;-82
2021/05/18 00:08:17;;;;;;;4.70;4.22;;;;;;;;;;5035251;28;20210;-82
2021/05/18 00:13:34;;;;;;;4.47;3.85;;;;;;;;;;5035213;28;20210;-82
2021/05/18 00:16:03;;;;;;;4.38;3.95;;;;;;;;;;5035495;28;20226;-82
2021/05/18 00:18:29;;;;;;;3.90;3.55;;;;;;;;;;5034931;28;20223;-82
2021/05/18 00:20:57;;;;;;;7.05;4.18;;;;;;;;;;5034704;28;20225;-82
2021/05/18 00:23:24;;;;;;;4.65;3.80;;;;;;;;;;5034987;28;20201;-82
2021/05/18 00:25:52;;;;;;;4.47;3.95;;;;;;;;;;5035870;28;20198;-82
2021/05/18 00:28:19;;;;;;;4.40;4.00;;;;;;;;;;5035177;28;20206;-82
2021/05/18 00:30:47;;;;;;;5.03;4.57;;;;;;;;;;5035322;28;21028;-82
2021/05/18 00:33:16;;;;;;;4.22;3.53;;;;;;;;;;5034769;28;20681;-82
2021/05/18 00:35:44;;;;;;;4.38;3.90;;;;;;;;;;5035608;28;20198;-82
2021/05/18 00:38:11;;;;;;;5.30;4.40;;;;;;;;;;5034693;28;20568;-82
2021/05/18 00:40:38;;;;;;;5.25;4.47;;;;;;;;;;5036169;28;20218;-82
2021/05/18 00:43:06;;;;;;;5.10;4.03;;;;;;;;;;5038473;28;20252;-82
2021/05/18 00:45:36;;;;;;;5.28;3.90;;;;;;;;;;5038783;28;20205;-82
2021/05/18 00:48:05;;;;;;;7.13;4.45;;;;;;;;;;5038613;28;20198;-82
2021/05/18 00:50:33;;;;;;;6.82;5.00;;;;;;;;;;5042620;28;20359;-82
2021/05/18 00:53:00;;;;;;;4.40;4.03;;;;;;;;;;5039936;28;20186;-82
2021/05/18 00:55:35;;;;;;;6.72;4.95;;;;;;;;;;5040920;28;20198;-82
2021/05/18 01:00:48;;;;;;;4.85;4.35;;;;;;;;;;5039364;28;20233;-82
2021/05/18 01:03:16;;;;;;;5.68;4.57;;;;;;;;;;5039833;28;20205;-82
2021/05/18 01:08:27;;;;;;;6.40;4.40;;;;;;;;;;5039135;28;20202;-82
2021/05/18 01:10:54;;;;;;;6.30;4.45;;;;;;;;;;5038713;28;20218;-82
2021/05/18 01:13:21;;;;;;;5.85;3.95;;;;;;;;;;5039708;28;20264;-82
2021/05/18 01:15:49;;;;;;;7.18;4.72;;;;;;;;;;5040740;28;20256;-82
2021/05/18 01:18:16;;;;;;;7.20;4.78;;;;;;;;;;5039038;28;20225;-82
2021/05/18 01:20:52;;;;;;;5.72;4.32;;;;;;;;;;5037725;28;20310;-82
2021/05/18 01:23:19;;;;;;;6.78;4.40;;;;;;;;;;5038400;28;20198;-82
2021/05/18 01:25:46;;;;;;;4.30;3.90;;;;;;;;;;5037828;28;20218;-82
2021/05/18 01:28:13;;;;;;;4.13;3.72;;;;;;;;;;5038451;28;20313;-82
2021/05/18 01:30:40;;;;;;;5.70;3.60;;;;;;;;;;5038596;28;20218;-82
2021/05/18 01:33:07;;;;;;;4.30;3.58;;;;;;;;;;5038715;28;20656;-82
2021/05/18 01:35:34;;;;;;;4.65;3.33;;;;;;;;;;5038333;28;20687;-82
2021/05/18 01:38:05;;;;;;;3.63;3.30;;;;;;;;;;5036961;28;20614;-82
2021/05/18 01:43:16;;;;;;;5.10;3.17;;;;;;;;;;5038004;28;20204;-82
2021/05/18 01:45:44;;;;;;;4.47;4.07;;;;;;;;;;5038297;28;20218;-82
2021/05/18 01:48:15;;;;;;;4.50;3.05;;;;;;;;;;5038247;28;20303;-82
2021/05/18 01:50:44;;;;;;;4.70;3.15;;;;;;;;;;5038175;28;20275;-83
2021/05/18 01:53:13;;;;;;;4.90;3.35;;;;;;;;;;5037236;28;20241;-82
2021/05/18 01:55:45;;;;;;;3.60;3.30;;;;;;;;;;5037954;28;20206;-83
2021/05/18 01:58:12;;;;;;;5.97;3.60;;;;;;;;;;5038020;28;20229;-83
2021/05/18 02:00:41;;;;;;;4.85;3.47;;;;;;;;;;5037355;28;20218;-82
2021/05/18 02:03:08;;;;;;;3.83;3.50;;;;;;;;;;5038204;28;20276;-82
2021/05/18 02:05:41;;;;;;;3.95;3.20;;;;;;;;;;5037929;28;20687;-83
2021/05/18 02:08:13;;;;;;;4.80;3.83;;;;;;;;;;5037851;28;20202;-82
2021/05/18 02:10:40;;;;;;;5.32;3.75;;;;;;;;;;5038082;28;20214;-82
2021/05/18 02:13:08;;;;;;;4.35;3.95;;;;;;;;;;5037526;28;20203;-82
2021/05/18 02:15:42;;;;;;;6.47;5.22;;;;;;;;;;5035461;28;20217;-82
2021/05/18 02:21:17;;;;;;;6.88;5.25;;;;;;;;;;5003553;28;20232;-82
2021/05/18 02:26:45;;;;;;;7.63;6.82;;;;;;;;;;4956229;29;20288;-82
2021/05/18 02:29:11;;;;;;;6.18;5.57;;;;;;;;;;4957060;29;20201;-82
2021/05/18 02:31:38;;;;;;;7.35;5.95;;;;;;;;;;4990697;28;20388;-82
2021/05/18 02:34:05;;;;;;;5.93;5.32;;;;;;;;;;5036698;28;20199;-83
2021/05/18 02:36:32;;;;;;;8.23;5.45;;;;;;;;;;5037028;28;20682;-82
2021/05/18 02:39:00;;;;;;;6.30;5.63;;;;;;;;;;5037383;28;20230;-83
2021/05/18 02:41:26;;;;;;;5.65;5.05;;;;;;;;;;5037427;28;20202;-82
2021/05/18 02:43:56;;;;;;;5.57;4.82;;;;;;;;;;5036660;28;20613;-82
2021/05/18 02:49:23;;;;;;;6.60;4.95;;;;;;;;;;4955820;29;20228;-82
2021/05/18 02:51:51;;;;;;;8.68;6.13;;;;;;;;;;4956020;29;20212;-82
2021/05/18 02:54:23;;;;;;;8.07;5.75;;;;;;;;;;4991835;28;20203;-82
2021/05/18 02:56:53;;;;;;;6.15;5.55;;;;;;;;;;5037630;28;20202;-82
2021/05/18 02:59:20;;;;;;;8.68;7.57;;;;;;;;;;5037401;28;20230;-82
2021/05/18 03:01:51;;;;;;;9.38;6.80;;;;;;;;;;5038014;28;20203;-82
2021/05/18 03:04:19;;;;;;;7.30;6.65;;;;;;;;;;5017355;28;20203;-82
2021/05/18 03:06:48;;;;;;;9.65;7.35;;;;;;;;;;5017424;28;20206;-82
2021/05/18 03:09:15;;;;;;;8.55;6.90;;;;;;;;;;5017489;28;20257;-82
2021/05/18 03:11:45;;;;;;;7.60;6.80;;;;;;;;;;5018098;28;20210;-82
2021/05/18 03:14:14;;;;;;;9.90;7.78;;;;;;;;;;5018448;28;20203;-82
2021/05/18 03:16:42;;;;;;;9.43;8.32;;;;;;;;;;5019319;28;20234;-82
2021/05/18 03:19:11;;;;;;;9.15;7.63;;;;;;;;;;5019320;28;20737;-82
2021/05/18 03:21:38;;;;;;;7.88;7.15;;;;;;;;;;5019001;28;20238;-82
2021/05/18 03:24:06;;;;;;;9.43;7.45;;;;;;;;;;5019518;28;20234;-83
2021/05/18 03:26:34;;;;;;;8.60;7.72;;;;;;;;;;5020051;28;20234;-82
2021/05/18 03:29:12;;;;;;;8.63;7.72;;;;;;;;;;5019755;28;20230;-82
2021/05/18 03:34:39;;;;;;;9.75;6.88;;;;;;;;;;4958944;29;20733;-82
2021/05/18 03:37:12;;;;;;;9.25;8.20;;;;;;;;;;4958143;29;20197;-82
2021/05/18 03:39:39;;;;;;;10.55;8.07;;;;;;;;;;4988348;28;20318;-82
2021/05/18 03:42:11;;;;;;;9.90;8.95;;;;;;;;;;5020262;28;20671;-82
2021/05/18 03:44:51;;;;;;;10.15;9.02;;;;;;;;;;5020395;28;20207;-83
2021/05/18 03:52:57;;;;;;;9.75;8.52;;;;;;;;;;5018454;28;20225;-82
2021/05/18 04:03:51;;;;;;;9.43;8.43;;;;;;;;;;5017681;28;20205;-82
2021/05/18 04:12:04;;;;;;;9.45;7.88;;;;;;;;;;5017860;28;20276;-82
2021/05/18 04:17:16;;;;;;;9.70;8.23;;;;;;;;;;5017734;28;20237;-83
2021/05/18 04:19:48;;;;;;;8.00;7.15;;;;;;;;;;5017909;28;20230;-82
2021/05/18 04:38:56;;;;;;;7.95;7.15;;;;;;;;;;5017690;28;20227;-82
2021/05/18 04:49:54;;;;;;;8.43;7.25;;;;;;;;;;5017704;28;20304;-83
2021/05/18 04:52:23;;;;;;;9.20;7.90;;;;;;;;;;5017718;28;20234;-82
2021/05/18 04:55:23;;;;;;;9.40;7.75;;;;;;;;;;5017681;28;20206;-82
2021/05/18 05:00:44;;;;;;;15.00;8.32;;;;;;;;;;5018014;28;20634;-82
2021/05/18 05:06:17;;;;;;;13.77;9.32;;;;;;;;;;5008248;28;20635;-82
2021/05/18 05:08:49;;;;;;;8.43;7.50;;;;;;;;;;5037294;28;20222;-82
2021/05/18 05:16:48;;;;;;;16.73;9.40;;;;;;;;;;5027430;28;20308;-82
2021/05/18 05:19:16;;;;;;;9.48;7.60;;;;;;;;;;5038193;28;20202;-82
2021/05/18 05:21:44;;;;;;;8.55;6.85;;;;;;;;;;5037643;28;20218;-83
2021/05/18 05:24:12;;;;;;;8.77;7.93;;;;;;;;;;5039973;28;20560;-82
2021/05/18 05:26:40;;;;;;;10.05;8.05;;;;;;;;;;5038777;28;20248;-82
2021/05/18 05:29:07;;;;;;;12.38;7.60;;;;;;;;;;5042825;28;20202;-82
2021/05/18 05:31:34;;;;;;;8.27;7.38;;;;;;;;;;5042333;28;20195;-82
2021/05/18 05:34:01;;;;;;;13.05;8.68;;;;;;;;;;5040917;28;20210;-82
2021/05/18 05:36:28;;;;;;;8.68;6.45;;;;;;;;;;5040464;28;20191;-83
2021/05/18 05:39:02;;;;;;;10.07;6.95;;;;;;;;;;5037746;28;20599;-82
2021/05/18 05:41:29;;;;;;;11.13;6.82;;;;;;;;;;5038501;28;20224;-83
2021/05/18 05:43:56;;;;;;;7.85;5.40;;;;;;;;;;5036722;28;20198;-82
2021/05/18 05:46:23;;;;;;;7.38;5.70;;;;;;;;;;5038108;28;20210;-82
2021/05/18 05:48:53;;;;;;;7.65;5.22;;;;;;;;;;5037148;28;20194;-83
2021/05/18 05:51:24;;;;;;;5.63;4.85;;;;;;;;;;5037384;28;20717;-82
2021/05/18 05:53:52;;;;;;;8.32;5.13;;;;;;;;;;5037710;28;20186;-83
2021/05/18 05:56:20;;;;;;;7.30;5.18;;;;;;;;;;5037701;28;20216;-83
2021/05/18 05:58:48;;;;;;;5.25;4.55;;;;;;;;;;5022400;28;20666;-82
2021/05/18 06:01:16;;;;;;;12.02;4.80;;;;;;;;;;5017606;28;20237;-83
2021/05/18 06:03:42;;;;;;;9.80;5.65;;;;;;;;;;5018492;28;20195;-83
2021/05/18 06:06:10;;;;;;;9.68;5.03;;;;;;;;;;5019475;28;20191;-83
2021/05/18 06:08:38;;;;;;;6.50;4.40;;;;;;;;;;5018316;28;20206;-83
2021/05/18 06:11:11;;;;;;;5.80;4.18;;;;;;;;;;5036226;28;20224;-83
2021/05/18 06:41:52;;;;;;;7.80;6.53;;;;;;;;;;5038002;28;20229;-84
2021/05/18 06:47:10;;;;;;;9.48;6.95;;;;;;;;;;5038655;28;20202;-83
2021/05/18 06:49:39;;;;;;;9.13;6.90;;;;;;;;;;5038650;28;20605;-83
2021/05/18 06:52:06;;;;;;;7.03;6.32;;;;;;;;;;5038361;28;20194;-83
2021/05/18 06:54:33;;;;;;;9.23;6.40;;;;;;;;;;5038243;28;20187;-83
2021/05/18 06:57:03;;;;;;;15.27;6.47;;;;;;;;;;5038252;28;20190;-83
2021/05/18 07:02:25;;;;;;;7.80;5.80;;;;;;;;;;5001088;28;20206;-82
2021/05/18 07:04:54;;;;;;;8.27;5.63;;;;;;;;;;5037908;28;20202;-83
2021/05/18 07:07:25;;;;;;;8.48;6.55;;;;;;;;;;5038596;28;20214;-82
2021/05/18 07:09:52;;;;;;;7.32;6.18;;;;;;;;;;5037660;28;20736;-83
2021/05/18 07:12:19;;;;;;;7.55;6.72;;;;;;;;;;5038028;28;20637;-83
2021/05/18 07:14:46;;;;;;;6.80;6.20;;;;;;;;;;5038765;28;20680;-83
2021/05/18 07:17:13;;;;;;;8.32;6.82;;;;;;;;;;5038293;28;20245;-83
2021/05/18 07:19:41;;;;;;;7.95;5.95;;;;;;;;;;5037082;28;20214;-82
2021/05/18 07:22:08;;;;;;;6.85;6.10;;;;;;;;;;5037151;28;20211;-83
2021/05/18 07:24:35;;;;;;;12.23;7.95;;;;;;;;;;5037961;28;20629;-82
2021/05/18 07:27:03;;;;;;;8.90;6.20;;;;;;;;;;5036700;28;20206;-83
2021/05/18 07:29:30;;;;;;;12.18;8.25;;;;;;;;;;5036583;28;20230;-83
2021/05/18 07:31:57;;;;;;;6.70;6.10;;;;;;;;;;5036854;28;20199;-83
2021/05/18 07:34:24;;;;;;;7.75;5.70;;;;;;;;;;5037975;28;20205;-83
2021/05/18 07:36:51;;;;;;;7.70;6.22;;;;;;;;;;5038284;28;20206;-82
2021/05/18 07:39:18;;;;;;;7.32;5.07;;;;;;;;;;5037326;28;20734;-82
2021/05/18 07:41:45;;;;;;;5.53;4.70;;;;;;;;;;5037503;28;20222;-83
2021/05/18 07:44:12;;;;;;;8.43;5.93;;;;;;;;;;5038553;28;20183;-83
2021/05/18 07:46:41;;;;;;;7.60;5.88;;;;;;;;;;5037900;28;20213;-83
2021/05/18 07:49:12;;;;;;;5.55;5.05;;;;;;;;;;5038617;28;20206;-83
2021/05/18 07:51:57;;;;;;;7.22;5.05;;;;;;;;;;5037839;28;20277;-83
2021/05/18 07:59:58;;;;;;;7.78;6.10;;;;;;;;;;5038169;28;20233;-83
2021/05/18 08:02:33;;;;;;;5.70;4.68;;;;;;;;;;5038487;28;20309;-82
2021/05/18 08:05:19;;;;;;;7.45;6.30;;;;;;;;;;5037816;28;20256;-83
2021/05/18 08:07:46;;;;;;;6.80;6.05;;;;;;;;;;5038497;28;20197;-83
2021/05/18 08:10:16;;;;;;;7.00;6.30;;;;;;;;;;5037459;28;20231;-83
2021/05/18 08:12:43;;;;;;;11.15;7.30;;;;;;;;;;5038268;28;20186;-83
2021/05/18 08:15:31;;;;;;;8.27;7.22;;;;;;;;;;5038226;28;20203;-83
2021/05/18 08:18:26;;;;;;;7.13;6.13;;;;;;;;;;5038159;28;20198;-84
2021/05/18 09:49:36;;;;;;;10.98;5.35;;;;;;;;;;5041283;28;20186;-83
2021/05/18 10:15:20;;;;;;;3.10;2.90;;;;;;;;;;5019677;28;20282;-84
2021/05/18 10:34:55;;;;;;;1.33;1.23;;;;;;;;;;5041204;28;20237;-84
2021/05/18 10:37:32;;;;;;;2.20;1.70;;;;;;;;;;5041436;28;20186;-85
2021/05/18 10:40:36;;;;;;;1.63;1.52;;;;;;;;;;5040759;28;20209;-84
2021/05/18 10:43:23;;;;;;;35.45;5.07;;;;;;;;;;5041033;28;20244;-84
2021/05/18 10:46:14;;;;;;;39.90;7.10;;;;;;;;;;5041784;28;20202;-84
2021/05/18 10:49:05;;;;;;;2.17;1.45;;;;;;;;;;5041948;28;20187;-83
2021/05/18 10:51:36;;;;;;;1.10;1.10;;;;;;;;;;5021260;28;20261;-84
2021/05/18 10:54:12;;;;;;;1.30;1.20;;;;;;;;;;5022665;28;20215;-84
2021/05/18 10:57:32;;;;;;;2.83;1.73;;;;;;;;;;5030766;28;20186;-84
2021/05/18 11:00:00;;;;;;;11.98;2.22;;;;;;;;;;4997134;28;20245;-83
2021/05/18 11:02:34;;;;;;;4.38;2.95;;;;;;;;;;5029349;28;20269;-84
2021/05/18 11:05:05;;;;;;;3.55;2.85;;;;;;;;;;5026322;28;20199;-83
2021/05/18 11:07:36;;;;;;;4.38;3.53;;;;;;;;;;5026384;28;20619;-84
2021/05/18 11:10:07;;;;;;;3.95;3.53;;;;;;;;;;5035618;28;20270;-84
2021/05/18 11:12:36;;;;;;;4.55;3.55;;;;;;;;;;5049776;28;20187;-83
2021/05/18 11:15:12;;;;;;;2.38;2.17;;;;;;;;;;5048646;28;20250;-84
2021/05/18 11:17:41;;;;;;;2.17;1.98;;;;;;;;;;5046136;28;20240;-84
2021/05/18 11:20:14;;;;;;;2.30;2.10;;;;;;;;;;5040550;28;20221;-84
2021/05/18 11:23:20;;;;;;;5.47;2.20;;;;;;;;;;5039448;28;20732;-84
2021/05/18 11:25:50;;;;;;;2.00;1.90;;;;;;;;;;5038753;28;20574;-84
2021/05/18 11:28:22;;;;;;;3.15;2.28;;;;;;;;;;5040188;28;20191;-84
2021/05/18 11:30:51;;;;;;;2.83;1.70;;;;;;;;;;5039676;28;20228;-83
2021/05/18 11:33:20;;;;;;;1.92;1.40;;;;;;;;;;5039437;28;20305;-84
2021/05/18 11:36:01;;;;;;;2.00;1.35;;;;;;;;;;5038975;28;20213;-84
2021/05/18 11:38:29;;;;;;;1.92;1.55;;;;;;;;;;5038346;28;20221;-84
2021/05/18 11:40:56;;;;;;;3.78;1.65;;;;;;;;;;5040207;28;20708;-84
2021/05/18 11:43:26;;;;;;;1.25;1.15;;;;;;;;;;5040077;28;20217;-84
2021/05/18 11:46:04;;;;;;;1.30;1.20;;;;;;;;;;5037954;28;20582;-84
2021/05/18 11:48:31;;;;;;;1.20;1.10;;;;;;;;;;5038174;28;20195;-84
2021/05/18 11:51:08;;;;;;;1.10;1.10;;;;;;;;;;5037035;28;20223;-83
2021/05/18 11:53:40;;;;;;;0.90;0.90;;;;;;;;;;5038016;28;20178;-83
2021/05/18 11:56:23;;;;;;;1.00;1.00;;;;;;;;;;5039906;28;20213;-84
2021/05/18 11:59:00;;;;;;;2.00;1.42;;;;;;;;;;5038173;28;20187;-83
2021/05/18 12:01:27;;;;;;;2.17;1.30;;;;;;;;;;5017646;28;20179;-84
2021/05/18 12:04:06;;;;;;;1.20;1.10;;;;;;;;;;5018204;28;20223;-83
2021/05/18 12:06:35;;;;;;;0.90;0.90;;;;;;;;;;5017527;28;20199;-82
2021/05/18 12:09:03;;;;;;;1.65;1.20;;;;;;;;;;5017951;28;20719;-84
2021/05/18 12:11:30;;;;;;;1.65;1.20;;;;;;;;;;5037690;28;20189;-84
2021/05/18 12:13:58;;;;;;;1.33;1.20;;;;;;;;;;5037430;28;20179;-84
2021/05/18 12:16:27;;;;;;;1.10;1.10;;;;;;;;;;5037279;28;20230;-83
2021/05/18 12:18:55;;;;;;;1.25;1.15;;;;;;;;;;5037487;28;20571;-84
2021/05/18 12:21:26;;;;;;;1.00;1.00;;;;;;;;;;5037256;28;20575;-84
2021/05/18 12:24:12;;;;;;;1.23;1.20;;;;;;;;;;5037336;28;20855;-84
2021/05/18 12:26:53;;;;;;;1.17;1.08;;;;;;;;;;5037355;28;20210;-84
2021/05/18 12:29:45;;;;;;;1.00;1.00;;;;;;;;;;5037235;28;20652;-85
2021/05/18 12:32:20;;;;;;;1.30;1.20;;;;;;;;;;5033442;28;20209;-83
2021/05/18 12:34:48;;;;;;;1.50;1.40;;;;;;;;;;5038084;28;20676;-84
2021/05/18 12:37:16;;;;;;;1.58;1.33;;;;;;;;;;5037622;28;20205;-84
2021/05/18 12:39:45;;;;;;;2.05;1.20;;;;;;;;;;5037252;28;20253;-85
2021/05/18 12:42:14;;;;;;;1.70;1.58;;;;;;;;;;5038068;28;20206;-84
2021/05/18 12:44:54;;;;;;;2.25;2.08;;;;;;;;;;5037918;28;20202;-84
2021/05/18 12:47:32;;;;;;;3.58;2.05;;;;;;;;;;5037548;28;20205;-84
2021/05/18 12:50:00;;;;;;;2.35;1.95;;;;;;;;;;5037994;28;20234;-84
2021/05/18 12:52:37;;;;;;;1.45;1.35;;;;;;;;;;5037392;28;20739;-83
2021/05/18 12:55:14;;;;;;;1.20;1.20;;;;;;;;;;5038164;28;20547;-84
2021/05/18 12:57:51;;;;;;;3.63;1.55;;;;;;;;;;5038019;28;20202;-84
2021/05/18 13:00:24;;;;;;;1.95;1.00;;;;;;;;;;5038285;28;20225;-84
2021/05/18 13:02:52;;;;;;;1.38;1.27;;;;;;;;;;5037608;28;20226;-84
2021/05/18 13:05:22;;;;;;;1.65;1.55;;;;;;;;;;5037854;28;20190;-84
2021/05/18 13:08:11;;;;;;;1.63;1.52;;;;;;;;;;5036621;28;20210;-84
2021/05/18 13:10:50;;;;;;;1.85;1.65;;;;;;;;;;5037218;28;20463;-84
2021/05/18 13:13:18;;;;;;;1.65;1.55;;;;;;;;;;5036731;28;20305;-84
2021/05/18 13:15:46;;;;;;;1.42;1.33;;;;;;;;;;5036476;28;20210;-84
2021/05/18 13:18:15;;;;;;;1.50;1.40;;;;;;;;;;5036561;28;20213;-84
2021/05/18 13:20:47;;;;;;;3.20;1.27;;;;;;;;;;5037236;28;20215;-84
2021/05/18 13:23:25;;;;;;;1.90;1.50;;;;;;;;;;5036986;28;20225;-84
2021/05/18 13:28:37;;;;;;;1.77;1.67;;;;;;;;;;5036510;28;20198;-84
2021/05/18 13:31:06;;;;;;;2.40;1.88;;;;;;;;;;5036871;28;20233;-84
2021/05/18 13:33:33;;;;;;;1.67;1.58;;;;;;;;;;5034941;28;20209;-83
2021/05/18 13:36:01;;;;;;;2.53;1.70;;;;;;;;;;5035951;28;20195;-85
2021/05/18 13:38:27;;;;;;;1.67;1.58;;;;;;;;;;5036182;28;20202;-84
2021/05/18 13:40:54;;;;;;;1.98;1.77;;;;;;;;;;5036325;28;20274;-84
2021/05/18 13:43:22;;;;;;;2.20;2.10;;;;;;;;;;5036745;28;20246;-85
2021/05/18 13:45:48;;;;;;;2.83;2.05;;;;;;;;;;5036484;28;20202;-83
2021/05/18 13:48:16;;;;;;;2.38;2.10;;;;;;;;;;5036588;28;20210;-84
2021/05/18 13:50:43;;;;;;;2.92;2.72;;;;;;;;;;5039311;28;20494;-84
2021/05/18 13:53:10;;;;;;;2.33;2.15;;;;;;;;;;5039713;28;20206;-84
2021/05/18 13:55:37;;;;;;;3.05;2.85;;;;;;;;;;5039951;28;20186;-84
2021/05/18 13:58:04;;;;;;;3.65;2.83;;;;;;;;;;5040511;28;20191;-84
2021/05/18 14:00:31;;;;;;;2.45;2.13;;;;;;;;;;5040369;28;20218;-84
2021/05/18 14:02:58;;;;;;;2.80;2.60;;;;;;;;;;5040621;28;20609;-84
2021/05/18 14:05:27;;;;;;;3.67;3.03;;;;;;;;;;5040442;28;20571;-83
2021/05/18 14:08:23;;;;;;;3.97;2.90;;;;;;;;;;5039980;28;20623;-83
2021/05/18 14:10:52;;;;;;;3.13;2.92;;;;;;;;;;5039787;28;20285;-83
2021/05/18 14:13:19;;;;;;;3.60;3.25;;;;;;;;;;5039546;28;20225;-83
2021/05/18 14:15:46;;;;;;;3.28;3.08;;;;;;;;;;5038805;28;20568;-83
2021/05/18 14:18:13;;;;;;;2.35;2.15;;;;;;;;;;5039399;28;20677;-83
2021/05/18 14:20:42;;;;;;;1.88;1.67;;;;;;;;;;5038732;28;20718;-83
2021/05/18 14:23:10;;;;;;;1.27;1.20;;;;;;;;;;5038452;28;20249;-82
2021/05/18 14:25:37;;;;;;;1.70;1.60;;;;;;;;;;5037632;28;20209;-83
2021/05/18 14:28:05;;;;;;;1.40;1.30;;;;;;;;;;5039022;28;20206;-83
2021/05/18 14:30:32;;;;;;;1.33;1.23;;;;;;;;;;5038942;28;20219;-83
2021/05/18 14:32:59;;;;;;;1.33;1.23;;;;;;;;;;5039202;28;20237;-83
2021/05/18 14:35:28;;;;;;;1.20;1.10;;;;;;;;;;5039134;28;20560;-84
2021/05/18 14:38:03;;;;;;;1.20;1.20;;;;;;;;;;5038975;28;20229;-85
2021/05/18 14:46:05;;;;;;;1.20;1.10;;;;;;;;;;5012727;28;20194;-83
2021/05/18 14:56:43;;;;;;;1.17;1.17;;;;;;;;;;5000571;28;20194;-83
2021/05/18 14:59:10;;;;;;;1.30;1.20;;;;;;;;;;5033216;28;20213;-82
2021/05/18 15:01:37;;;;;;;1.50;1.40;;;;;;;;;;5033337;28;20252;-82
2021/05/18 15:04:04;;;;;;;1.20;1.20;;;;;;;;;;5033414;28;20226;-82
2021/05/18 15:06:32;;;;;;;1.70;1.60;;;;;;;;;;5033463;28;20210;-82
2021/05/18 15:08:59;;;;;;;1.33;1.23;;;;;;;;;;5033408;28;20198;-83
2021/05/18 15:11:26;;;;;;;1.42;1.27;;;;;;;;;;5033335;28;20209;-83
2021/05/18 15:13:53;;;;;;;1.55;1.45;;;;;;;;;;5033471;28;20202;-83
2021/05/18 15:16:20;;;;;;;2.95;1.50;;;;;;;;;;5033167;28;20234;-83
2021/05/18 15:18:50;;;;;;;1.80;1.60;;;;;;;;;;5033300;28;20688;-83
2021/05/18 15:21:17;;;;;;;1.40;1.30;;;;;;;;;;5032038;28;20261;-83
2021/05/18 15:23:44;;;;;;;1.35;1.25;;;;;;;;;;5033715;28;20715;-83
2021/05/18 15:26:11;;;;;;;1.60;1.50;;;;;;;;;;5033487;28;20198;-83
2021/05/18 15:28:42;;;;;;;2.30;2.10;;;;;;;;;;5032921;28;20191;-84
2021/05/18 15:31:10;;;;;;;2.00;1.90;;;;;;;;;;5033295;28;20357;-83
2021/05/18 15:33:37;;;;;;;1.80;1.70;;;;;;;;;;5033386;28;20189;-83
2021/05/18 15:36:05;;;;;;;2.30;2.13;;;;;;;;;;5033189;28;20206;-83
2021/05/18 15:38:38;;;;;;;1.88;1.77;;;;;;;;;;5032423;28;20237;-83
2021/05/18 15:41:05;;;;;;;3.08;1.60;;;;;;;;;;5049357;28;20325;-83
2021/05/18 15:43:31;;;;;;;1.50;1.40;;;;;;;;;;5052714;28;20245;-83
2021/05/18 15:45:59;;;;;;;2.15;1.90;;;;;;;;;;5052437;28;20197;-83
2021/05/18 15:48:26;;;;;;;2.00;1.90;;;;;;;;;;5052516;28;20197;-83
2021/05/18 15:50:53;;;;;;;1.88;1.48;;;;;;;;;;5051870;28;20225;-83
2021/05/18 15:53:20;;;;;;;2.10;1.90;;;;;;;;;;5052679;28;20201;-83
2021/05/18 15:55:47;;;;;;;2.00;1.90;;;;;;;;;;5052710;28;20228;-83
2021/05/18 15:58:13;;;;;;;1.70;1.60;;;;;;;;;;5052701;28;20194;-84
2021/05/18 16:00:40;;;;;;;1.98;1.40;;;;;;;;;;5038860;28;20226;-84
2021/05/18 16:03:08;;;;;;;1.45;1.35;;;;;;;;;;5033353;28;20232;-83
2021/05/18 16:05:35;;;;;;;2.47;2.28;;;;;;;;;;5032666;28;20210;-82
2021/05/18 16:08:09;;;;;;;1.60;1.50;;;;;;;;;;5032499;28;20206;-83
2021/05/18 16:10:35;;;;;;;1.80;1.70;;;;;;;;;;5044128;28;20601;-83
2021/05/18 16:13:02;;;;;;;1.50;1.40;;;;;;;;;;5051689;28;20344;-84
2021/05/18 16:15:29;;;;;;;1.50;1.40;;;;;;;;;;5052364;28;20198;-83
2021/05/18 16:17:56;;;;;;;1.73;1.63;;;;;;;;;;5032428;28;20206;-83
2021/05/18 16:20:24;;;;;;;1.67;1.58;;;;;;;;;;5032200;28;20237;-83
2021/05/18 16:22:54;;;;;;;1.48;1.38;;;;;;;;;;5032613;28;20206;-83
2021/05/18 16:25:21;;;;;;;1.50;1.40;;;;;;;;;;5032414;28;20229;-83
2021/05/18 16:27:48;;;;;;;1.52;1.42;;;;;;;;;;5032365;28;20206;-83
2021/05/18 16:30:17;;;;;;;1.50;1.40;;;;;;;;;;5023137;28;20234;-83
2021/05/18 16:32:44;;;;;;;1.35;1.25;;;;;;;;;;5012723;28;20207;-82
2021/05/18 16:35:12;;;;;;;1.20;1.10;;;;;;;;;;5012757;28;20701;-83
2021/05/18 16:37:41;;;;;;;1.30;1.20;;;;;;;;;;5012621;28;20250;-83
2021/05/18 16:40:09;;;;;;;1.58;1.48;;;;;;;;;;5020132;28;20234;-83
2021/05/18 16:42:37;;;;;;;1.30;1.15;;;;;;;;;;5031949;28;20202;-82
2021/05/18 16:45:07;;;;;;;1.13;1.10;;;;;;;;;;5031869;28;20222;-83
2021/05/18 16:47:34;;;;;;;1.33;1.25;;;;;;;;;;5032942;28;20213;-82
2021/05/18 16:50:01;;;;;;;1.02;1.02;;;;;;;;;;5021628;28;20736;-82
2021/05/18 16:52:28;;;;;;;1.20;1.10;;;;;;;;;;5016680;28;20199;-83
2021/05/18 16:54:55;;;;;;;1.20;1.10;;;;;;;;;;5012083;28;20211;-83
2021/05/18 16:57:22;;;;;;;2.20;1.20;;;;;;;;;;5012620;28;20594;-83
2021/05/18 16:59:49;;;;;;;1.30;1.30;;;;;;;;;;5012698;28;20230;-83
2021/05/18 17:02:16;;;;;;;1.00;1.00;;;;;;;;;;5012251;28;20203;-83
2021/05/18 17:04:43;;;;;;;0.80;0.80;;;;;;;;;;5012244;28;20628;-83
2021/05/18 17:07:09;;;;;;;1.40;1.25;;;;;;;;;;5012342;28;20598;-83
2021/05/18 17:09:36;;;;;;;1.35;0.98;;;;;;;;;;5012455;28;20223;-83
2021/05/18 17:12:05;;;;;;;1.85;1.15;;;;;;;;;;5012681;28;20202;-82
2021/05/18 17:14:33;;;;;;;1.70;1.60;;;;;;;;;;5012157;28;20203;-83
2021/05/18 17:17:00;;;;;;;2.00;1.20;;;;;;;;;;5023974;28;20238;-83
2021/05/18 17:19:27;;;;;;;1.50;1.40;;;;;;;;;;5031581;28;20630;-83
2021/05/18 17:21:54;;;;;;;1.40;1.30;;;;;;;;;;5031644;28;20583;-83
2021/05/18 17:24:21;;;;;;;16.10;2.92;;;;;;;;;;5036143;28;20230;-82
2021/05/18 17:26:48;;;;;;;1.85;1.40;;;;;;;;;;5035961;28;20206;-83
2021/05/18 17:29:16;;;;;;;1.70;1.60;;;;;;;;;;5035624;28;20741;-83
2021/05/18 17:31:43;;;;;;;1.02;1.02;;;;;;;;;;5035732;28;20206;-82
2021/05/18 17:34:11;;;;;;;1.35;1.35;;;;;;;;;;5036090;28;20202;-83
2021/05/18 17:36:39;;;;;;;1.30;1.23;;;;;;;;;;5035822;28;20202;-83
2021/05/18 17:39:06;;;;;;;1.00;1.00;;;;;;;;;;5035537;28;20615;-83
2021/05/18 17:41:33;;;;;;;1.30;1.20;;;;;;;;;;5036001;28;20739;-83
2021/05/18 17:44:00;;;;;;;1.35;1.25;;;;;;;;;;5035559;28;20202;-83
2021/05/18 17:46:32;;;;;;;1.13;1.10;;;;;;;;;;5035722;28;20199;-83
2021/05/18 17:48:59;;;;;;;0.90;0.90;;;;;;;;;;5036018;28;20194;-83
2021/05/18 17:51:26;;;;;;;1.35;1.23;;;;;;;;;;5035660;28;20680;-82
2021/05/18 17:53:53;;;;;;;1.23;1.20;;;;;;;;;;5035467;28;20248;-83
2021/05/18 17:56:20;;;;;;;1.45;1.10;;;;;;;;;;5036204;28;20191;-82
2021/05/18 17:58:47;;;;;;;0.88;0.88;;;;;;;;;;5035311;28;20203;-83
2021/05/18 18:01:14;;;;;;;1.33;1.00;;;;;;;;;;5035210;28;20230;-83
2021/05/18 18:03:42;;;;;;;1.35;1.25;;;;;;;;;;5036178;28;20256;-83
2021/05/18 18:06:09;;;;;;;1.40;1.02;;;;;;;;;;5035279;28;20229;-83
2021/05/18 18:08:39;;;;;;;1.52;1.15;;;;;;;;;;5036064;28;20213;-83
2021/05/18 18:11:06;;;;;;;1.20;1.20;;;;;;;;;;5035717;28;20261;-83
2021/05/18 18:13:34;;;;;;;2.28;1.10;;;;;;;;;;5035214;28;20207;-83
2021/05/18 18:16:02;;;;;;;1.10;1.10;;;;;;;;;;5034664;28;20226;-83
2021/05/18 18:18:29;;;;;;;2.05;1.10;;;;;;;;;;5034935;28;20207;-83
2021/05/18 18:20:57;;;;;;;1.85;1.35;;;;;;;;;;5034696;28;20735;-83
2021/05/18 18:23:24;;;;;;;0.90;0.90;;;;;;;;;;5034961;28;20210;-83
2021/05/18 18:25:51;;;;;;;1.02;1.02;;;;;;;;;;5035118;28;20729;-83
2021/05/18 18:28:19;;;;;;;0.85;0.85;;;;;;;;;;5034590;28;20211;-84
2021/05/18 18:30:46;;;;;;;1.10;1.00;;;;;;;;;;5034638;28;20284;-83
2021/05/18 18:33:13;;;;;;;0.93;0.93;;;;;;;;;;5035321;28;20202;-83
2021/05/18 18:35:40;;;;;;;1.00;1.00;;;;;;;;;;5034431;28;20198;-83
2021/05/18 18:38:09;;;;;;;0.90;0.90;;;;;;;;;;5034864;28;20209;-83
2021/05/18 18:40:37;;;;;;;3.00;1.25;;;;;;;;;;5034492;28;20227;-83
2021/05/18 18:43:04;;;;;;;1.25;1.20;;;;;;;;;;5030534;28;20227;-83
2021/05/18 18:45:34;;;;;;;0.80;0.80;;;;;;;;;;5030443;28;20597;-83
2021/05/18 18:48:02;;;;;;;1.20;1.10;;;;;;;;;;5034800;28;20643;-83
2021/05/18 18:50:31;;;;;;;0.85;0.85;;;;;;;;;;5034155;28;20222;-83
2021/05/18 18:53:01;;;;;;;1.73;0.93;;;;;;;;;;5034232;28;20294;-83
2021/05/18 18:55:29;;;;;;;0.93;0.90;;;;;;;;;;5034662;28;20236;-83
2021/05/18 18:57:56;;;;;;;1.30;1.20;;;;;;;;;;5034439;28;20655;-83
2021/05/18 19:00:23;;;;;;;1.02;0.90;;;;;;;;;;5034352;28;20226;-83
2021/05/18 19:02:56;;;;;;;0.93;0.93;;;;;;;;;;5033846;28;20202;-83
2021/05/18 19:05:32;;;;;;;10.23;1.35;;;;;;;;;;5034405;28;20222;-83
2021/05/18 19:08:22;;;;;;;1.63;1.52;;;;;;;;;;5034267;28;20221;-83
2021/05/18 19:11:14;;;;;;;1.67;1.58;;;;;;;;;;5034381;28;20233;-83
2021/05/18 19:13:41;;;;;;;1.70;1.60;;;;;;;;;;5034425;28;20209;-83
2021/05/18 19:16:08;;;;;;;1.98;1.88;;;;;;;;;;5033859;28;20226;-83
2021/05/18 19:18:35;;;;;;;7.05;1.50;;;;;;;;;;5033924;28;20672;-83
2021/05/18 19:21:02;;;;;;;2.33;2.13;;;;;;;;;;5034190;28;20223;-83
2021/05/18 19:23:29;;;;;;;2.17;1.98;;;;;;;;;;5034251;28;20210;-83
2021/05/18 19:25:58;;;;;;;3.25;2.95;;;;;;;;;;5033979;28;20295;-82